^^
Datos históricos de la estación: Murcia-Puente Tocinos
Diario Informe para Junio 28, 2019 Unidades:  Ambas    Inglés   Métrico
Diario Semanal Mensual Anual Configurable
  Máximo: Mínimo: Media:
Temperatura: 93.7 °F /  34.3 °C 73.4 °F /  23.0 °C 83.5 °F /  28.6 °C
Punto de rocio: 63 °F /  17.2 °C 54.3 °F /  12.4 °C 59.4 °F /  15.2 °C
Humedad: 63% 27% 46%
Velocidad viento: 11.2mph /  18.0km/h - 4.9mph /  7.9km/h
Racha viento: 19.6mph /  31.5km/h - -
Viento- - ESE
Presión: 30 in /  1016.4 hPa 29.9 in /  1012.7 hPa -
Precipitación: 0 in /  0.0 mm    
Historical Graphs
 
 
Tabla de datos para Junio 28, 2019
Hora Temperatura Punto de rocio Presión Viento Velocidad viento Racha viento Humedad Intensidad lluvia(por hora) Nubes
00:00 80.1 °F /  26.7 °C 60.8 °F /  16.0 °C 30in /  1016.1hPa WNW 2.4mph /  3.9km/h 4.6mph /  7.4km/h 52% 0in /  0.0mm CLR
00:05 79.9 °F /  26.6 °C 61.2 °F /  16.2 °C 30in /  1016.2hPa NW 2.4mph /  3.9km/h 4.6mph /  7.4km/h 53% 0in /  0.0mm CLR
00:10 79.5 °F /  26.4 °C 61 °F /  16.1 °C 30in /  1016.2hPa WNW 2.9mph /  4.7km/h 4.6mph /  7.4km/h 53% 0in /  0.0mm CLR
00:15 79.5 °F /  26.4 °C 61 °F /  16.1 °C 30in /  1016.2hPa WNW 2.9mph /  4.7km/h 2.3mph /  3.7km/h 53% 0in /  0.0mm CLR
00:20 79.5 °F /  26.4 °C 61.3 °F /  16.3 °C 30in /  1016.2hPa WNW 1.4mph /  2.3km/h 2mph /  3.2km/h 54% 0in /  0.0mm CLR
00:25 79.5 °F /  26.4 °C 61.3 °F /  16.3 °C 30in /  1016.2hPa NNW 1.4mph /  2.3km/h 4.6mph /  7.4km/h 54% 0in /  0.0mm CLR
00:30 79.5 °F /  26.4 °C 61.3 °F /  16.3 °C 30in /  1016.2hPa NE 2mph /  3.2km/h 4.6mph /  7.4km/h 54% 0in /  0.0mm CLR
00:35 79.3 °F /  26.3 °C 61.2 °F /  16.2 °C 30in /  1016.4hPa NE 2mph /  3.2km/h 6.9mph /  11.1km/h 54% 0in /  0.0mm CLR
00:40 79.3 °F /  26.3 °C 61.9 °F /  16.6 °C 30in /  1016.4hPa NE 3.6mph /  5.8km/h 5.8mph /  9.3km/h 55% 0in /  0.0mm CLR
00:45 79.2 °F /  26.2 °C 62.1 °F /  16.7 °C 30in /  1016.4hPa NE 3.6mph /  5.8km/h 4.6mph /  7.4km/h 56% 0in /  0.0mm CLR
00:50 79 °F /  26.1 °C 61.9 °F /  16.6 °C 30in /  1016.4hPa NE 2.9mph /  4.7km/h 2mph /  3.2km/h 56% 0in /  0.0mm CLR
00:55 78.6 °F /  25.9 °C 62.1 °F /  16.7 °C 30in /  1016.4hPa NE 2.9mph /  4.7km/h 2.3mph /  3.7km/h 57% 0in /  0.0mm CLR
01:00 78.6 °F /  25.9 °C 62.1 °F /  16.7 °C 30in /  1016.4hPa Calm     57% 0in /  0.0mm CLR
01:05 78.4 °F /  25.8 °C 61.9 °F /  16.6 °C 30in /  1016.3hPa Calm     57% 0in /  0.0mm CLR
01:10 78.3 °F /  25.7 °C 62.2 °F /  16.8 °C 30in /  1016.3hPa Calm     58% 0in /  0.0mm CLR
01:15 78.3 °F /  25.7 °C 62.2 °F /  16.8 °C 30in /  1016.3hPa Calm     58% 0in /  0.0mm CLR
01:20 78.1 °F /  25.6 °C 62.1 °F /  16.7 °C 30in /  1016.4hPa Calm     58% 0in /  0.0mm CLR
01:25 78.1 °F /  25.6 °C 62.6 °F /  17.0 °C 30in /  1016.4hPa Calm     59% 0in /  0.0mm CLR
01:30 78.1 °F /  25.6 °C 62.6 °F /  17.0 °C 30in /  1016.4hPa Calm     59% 0in /  0.0mm CLR
01:35 78.1 °F /  25.6 °C 62.6 °F /  17.0 °C 30in /  1016.4hPa Calm     59% 0in /  0.0mm CLR
01:40 78.1 °F /  25.6 °C 62.6 °F /  17.0 °C 30in /  1016.4hPa Calm     59% 0in /  0.0mm CLR
01:45 77.9 °F /  25.5 °C 62.4 °F /  16.9 °C 30in /  1016.4hPa Calm     59% 0in /  0.0mm CLR
01:50 77.9 °F /  25.5 °C 62.4 °F /  16.9 °C 30in /  1016.4hPa Calm     59% 0in /  0.0mm CLR
01:55 77.7 °F /  25.4 °C 62.2 °F /  16.8 °C 30in /  1016.4hPa Calm     59% 0in /  0.0mm CLR
02:00 77.5 °F /  25.3 °C 62.1 °F /  16.7 °C 30in /  1016.4hPa Calm     59% 0in /  0.0mm CLR
02:05 77.5 °F /  25.3 °C 62.6 °F /  17.0 °C 30in /  1016.3hPa Calm     60% 0in /  0.0mm CLR
02:10 77.4 °F /  25.2 °C 62.4 °F /  16.9 °C 30in /  1016.3hPa Calm     60% 0in /  0.0mm CLR
02:15 77.4 °F /  25.2 °C 62.4 °F /  16.9 °C 30in /  1016.3hPa Calm     60% 0in /  0.0mm CLR
02:20 77.4 °F /  25.2 °C 62.4 °F /  16.9 °C 30in /  1016.3hPa Calm     60% 0in /  0.0mm CLR
02:25 77.4 °F /  25.2 °C 62.4 °F /  16.9 °C 30in /  1016.3hPa Calm     60% 0in /  0.0mm CLR
02:30 77.4 °F /  25.2 °C 63 °F /  17.2 °C 30in /  1016.3hPa Calm     61% 0in /  0.0mm CLR
02:35 77.4 °F /  25.2 °C 63 °F /  17.2 °C 30in /  1016.2hPa Calm   3.5mph /  5.6km/h 61% 0in /  0.0mm CLR
02:40 77.2 °F /  25.1 °C 62.8 °F /  17.1 °C 30in /  1016.2hPa Calm     61% 0in /  0.0mm CLR
02:45 77.2 °F /  25.1 °C 62.8 °F /  17.1 °C 30in /  1016.2hPa Calm     61% 0in /  0.0mm CLR
02:50 77.2 °F /  25.1 °C 62.8 °F /  17.1 °C 30in /  1016.2hPa Calm     61% 0in /  0.0mm CLR
02:55 77.4 °F /  25.2 °C 62.4 °F /  16.9 °C 30in /  1016.2hPa Calm     60% 0in /  0.0mm CLR
03:00 77.4 °F /  25.2 °C 62.4 °F /  16.9 °C 30in /  1016.2hPa Calm     60% 0in /  0.0mm CLR
03:05 77.4 °F /  25.2 °C 62.4 °F /  16.9 °C 30in /  1016.0hPa Calm     60% 0in /  0.0mm CLR
03:10 77.4 °F /  25.2 °C 61.9 °F /  16.6 °C 30in /  1016.0hPa Calm     59% 0in /  0.0mm CLR
03:15 77.2 °F /  25.1 °C 62.2 °F /  16.8 °C 30in /  1016.0hPa Calm     60% 0in /  0.0mm CLR
03:20 77 °F /  25.0 °C 62.4 °F /  16.9 °C 30in /  1016.0hPa Calm     61% 0in /  0.0mm CLR
03:25 76.8 °F /  24.9 °C 62.2 °F /  16.8 °C 30in /  1016.0hPa Calm     61% 0in /  0.0mm CLR
03:30 76.6 °F /  24.8 °C 62.2 °F /  16.8 °C 30in /  1016.0hPa Calm     61% 0in /  0.0mm CLR
03:35 76.5 °F /  24.7 °C 62.1 °F /  16.7 °C 30in /  1015.8hPa Calm     61% 0in /  0.0mm CLR
03:40 76.3 °F /  24.6 °C 61.9 °F /  16.6 °C 30in /  1015.8hPa Calm     61% 0in /  0.0mm CLR
03:45 76.3 °F /  24.6 °C 61.9 °F /  16.6 °C 30in /  1015.8hPa Calm     61% 0in /  0.0mm CLR
03:50 76.3 °F /  24.6 °C 61 °F /  16.1 °C 30in /  1015.7hPa Calm     59% 0in /  0.0mm CLR
03:55 76.3 °F /  24.6 °C 61 °F /  16.1 °C 30in /  1015.7hPa Calm   2.3mph /  3.7km/h 59% 0in /  0.0mm CLR
04:00 76.3 °F /  24.6 °C 61.3 °F /  16.3 °C 30in /  1015.7hPa SSE 1.4mph /  2.3km/h   60% 0in /  0.0mm CLR
04:05 76.1 °F /  24.5 °C 62.1 °F /  16.7 °C 30in /  1015.6hPa SSE 1.4mph /  2.3km/h   62% 0in /  0.0mm CLR
04:10 75.9 °F /  24.4 °C 62.1 °F /  16.7 °C 30in /  1015.6hPa Calm     62% 0in /  0.0mm CLR
04:15 75.6 °F /  24.2 °C 61.5 °F /  16.4 °C 30in /  1015.6hPa Calm     62% 0in /  0.0mm CLR
04:20 75.4 °F /  24.1 °C 61.9 °F /  16.6 °C 30in /  1015.6hPa Calm     63% 0in /  0.0mm CLR
04:25 75.2 °F /  24.0 °C 61.7 °F /  16.5 °C 30in /  1015.6hPa Calm     63% 0in /  0.0mm CLR
04:30 75 °F /  23.9 °C 61.5 °F /  16.4 °C 30in /  1015.6hPa Calm     63% 0in /  0.0mm CLR
04:35 75 °F /  23.9 °C 61.5 °F /  16.4 °C 30in /  1015.5hPa Calm     63% 0in /  0.0mm CLR
04:40 75 °F /  23.9 °C 61.2 °F /  16.2 °C 30in /  1015.5hPa Calm     62% 0in /  0.0mm CLR
04:45 75 °F /  23.9 °C 60.6 °F /  15.9 °C 30in /  1015.5hPa Calm   1.4mph /  2.3km/h 61% 0in /  0.0mm CLR
04:50 74.8 °F /  23.8 °C 61 °F /  16.1 °C 30in /  1015.4hPa SSE 1.4mph /  2.3km/h 4.6mph /  7.4km/h 62% 0in /  0.0mm CLR
04:55 74.7 °F /  23.7 °C 60.3 °F /  15.7 °C 30in /  1015.4hPa SSE 1.4mph /  2.3km/h 6.4mph /  10.3km/h 61% 0in /  0.0mm CLR
05:00 74.3 °F /  23.5 °C 60.1 °F /  15.6 °C 30in /  1015.4hPa SSE 4mph /  6.4km/h 6.9mph /  11.1km/h 61% 0in /  0.0mm CLR
05:05 74.1 °F /  23.4 °C 60.3 °F /  15.7 °C 30in /  1015.3hPa SSE 4mph /  6.4km/h 5.8mph /  9.3km/h 62% 0in /  0.0mm CLR
05:10 73.9 °F /  23.3 °C 60.1 °F /  15.6 °C 30in /  1015.3hPa SSE 4.7mph /  7.6km/h 4.6mph /  7.4km/h 62% 0in /  0.0mm CLR
05:15 73.9 °F /  23.3 °C 60.1 °F /  15.6 °C 30in /  1015.3hPa SSE 4.7mph /  7.6km/h 5.8mph /  9.3km/h 62% 0in /  0.0mm CLR
05:20 73.9 °F /  23.3 °C 60.1 °F /  15.6 °C 30in /  1015.4hPa SSE 4mph /  6.4km/h 5.2mph /  8.4km/h 62% 0in /  0.0mm CLR
05:25 73.9 °F /  23.3 °C 60.1 °F /  15.6 °C 30in /  1015.4hPa SSW 4mph /  6.4km/h 6.2mph /  10.0km/h 62% 0in /  0.0mm CLR
05:30 73.9 °F /  23.3 °C 60.1 °F /  15.6 °C 30in /  1015.4hPa SW 4mph /  6.4km/h 5.8mph /  9.3km/h 62% 0in /  0.0mm CLR
05:35 74.1 °F /  23.4 °C 59.7 °F /  15.4 °C 30in /  1015.3hPa SE 4mph /  6.4km/h 3.5mph /  5.6km/h 61% 0in /  0.0mm CLR
05:40 73.9 °F /  23.3 °C 59.5 °F /  15.3 °C 30in /  1015.3hPa SSE 3.6mph /  5.8km/h 4.7mph /  7.6km/h 61% 0in /  0.0mm CLR
05:45 73.8 °F /  23.2 °C 59.9 °F /  15.5 °C 30in /  1015.3hPa SSW 3.6mph /  5.8km/h 5.8mph /  9.3km/h 62% 0in /  0.0mm CLR
05:50 73.8 °F /  23.2 °C 59.5 °F /  15.3 °C 30in /  1015.3hPa SSW 4mph /  6.4km/h 4.6mph /  7.4km/h 61% 0in /  0.0mm CLR
05:55 73.8 °F /  23.2 °C 59.5 °F /  15.3 °C 30in /  1015.3hPa SSW 4mph /  6.4km/h 3.5mph /  5.6km/h 61% 0in /  0.0mm CLR
06:00 73.8 °F /  23.2 °C 59.5 °F /  15.3 °C 30in /  1015.3hPa ESE 2.4mph /  3.9km/h 5.8mph /  9.3km/h 61% 0in /  0.0mm CLR
06:05 73.6 °F /  23.1 °C 59.7 °F /  15.4 °C 30in /  1015.3hPa South 2.4mph /  3.9km/h 4.6mph /  7.4km/h 62% 0in /  0.0mm CLR
06:10 73.4 °F /  23.0 °C 59.2 °F /  15.1 °C 30in /  1015.3hPa SSW 3.6mph /  5.8km/h 4.6mph /  7.4km/h 61% 0in /  0.0mm CLR
06:15 73.6 °F /  23.1 °C 59.4 °F /  15.2 °C 30in /  1015.3hPa SSW 3.6mph /  5.8km/h 4.6mph /  7.4km/h 61% 0in /  0.0mm CLR
06:20 73.6 °F /  23.1 °C 59.4 °F /  15.2 °C 30in /  1015.4hPa South 3.6mph /  5.8km/h 4.6mph /  7.4km/h 61% 0in /  0.0mm CLR
06:25 73.8 °F /  23.2 °C 59.5 °F /  15.3 °C 30in /  1015.4hPa South 3.6mph /  5.8km/h 3.6mph /  5.8km/h 61% 0in /  0.0mm CLR
06:30 73.8 °F /  23.2 °C 59 °F /  15.0 °C 30in /  1015.4hPa SW 2.4mph /  3.9km/h 5.8mph /  9.3km/h 60% 0in /  0.0mm CLR
06:35 73.9 °F /  23.3 °C 59.2 °F /  15.1 °C 30in /  1015.4hPa South 2.4mph /  3.9km/h 4.7mph /  7.6km/h 60% 0in /  0.0mm CLR
06:40 73.9 °F /  23.3 °C 59.2 °F /  15.1 °C 30in /  1015.4hPa SSW 3.1mph /  5.0km/h 3.5mph /  5.6km/h 60% 0in /  0.0mm CLR
06:45 73.9 °F /  23.3 °C 59.2 °F /  15.1 °C 30in /  1015.4hPa SSW 3.1mph /  5.0km/h 4.7mph /  7.6km/h 60% 0in /  0.0mm CLR
06:50 74.1 °F /  23.4 °C 58.8 °F /  14.9 °C 30in /  1015.5hPa SSE 3.1mph /  5.0km/h 5.2mph /  8.4km/h 59% 0in /  0.0mm CLR
06:55 74.1 °F /  23.4 °C 58.8 °F /  14.9 °C 30in /  1015.5hPa SSW 3.1mph /  5.0km/h 5.8mph /  9.3km/h 59% 0in /  0.0mm CLR
07:00 74.1 °F /  23.4 °C 58.8 °F /  14.9 °C 30in /  1015.5hPa SSW 4.3mph /  6.9km/h 8.1mph /  13.0km/h 59% 0in /  0.0mm CLR
07:05 74.1 °F /  23.4 °C 58.8 °F /  14.9 °C 30in /  1015.4hPa SSW 4.3mph /  6.9km/h 5.8mph /  9.3km/h 59% 0in /  0.0mm CLR
07:10 74.1 °F /  23.4 °C 58.8 °F /  14.9 °C 30in /  1015.4hPa SSW 5.2mph /  8.4km/h 6.9mph /  11.1km/h 59% 0in /  0.0mm CLR
07:15 73.9 °F /  23.3 °C 58.6 °F /  14.8 °C 30in /  1015.4hPa SW 5.2mph /  8.4km/h 8.1mph /  13.0km/h 59% 0in /  0.0mm CLR
07:20 73.9 °F /  23.3 °C 58.6 °F /  14.8 °C 30in /  1015.5hPa SSW 5.2mph /  8.4km/h 6.9mph /  11.1km/h 59% 0in /  0.0mm CLR
07:25 74.1 °F /  23.4 °C 58.8 °F /  14.9 °C 30in /  1015.5hPa SSW 5.2mph /  8.4km/h 5.8mph /  9.3km/h 59% 0in /  0.0mm CLR
07:30 74.1 °F /  23.4 °C 58.8 °F /  14.9 °C 30in /  1015.5hPa South 4.3mph /  6.9km/h 5.8mph /  9.3km/h 59% 0in /  0.0mm CLR
07:35 74.1 °F /  23.4 °C 58.8 °F /  14.9 °C 30in /  1015.6hPa SW 4.3mph /  6.9km/h 5.8mph /  9.3km/h 59% 0in /  0.0mm CLR
07:40 74.1 °F /  23.4 °C 58.8 °F /  14.9 °C 30in /  1015.6hPa WSW 4.7mph /  7.6km/h 5.8mph /  9.3km/h 59% 0in /  0.0mm CLR
07:45 74.3 °F /  23.5 °C 59 °F /  15.0 °C 30in /  1015.6hPa SW 4.7mph /  7.6km/h 6.9mph /  11.1km/h 59% 0in /  0.0mm CLR
07:50 74.5 °F /  23.6 °C 59.2 °F /  15.1 °C 30in /  1015.6hPa SW 4mph /  6.4km/h 8.1mph /  13.0km/h 59% 0in /  0.0mm CLR
07:55 74.5 °F /  23.6 °C 59.2 °F /  15.1 °C 30in /  1015.6hPa SW 4mph /  6.4km/h 10.4mph /  16.7km/h 59% 0in /  0.0mm CLR
08:00 74.5 °F /  23.6 °C 58.6 °F /  14.8 °C 30in /  1015.6hPa SW 5.2mph /  8.4km/h 9.2mph /  14.8km/h 58% 0in /  0.0mm CLR
08:05 74.7 °F /  23.7 °C 58.8 °F /  14.9 °C 30in /  1015.6hPa SW 5.2mph /  8.4km/h 8.1mph /  13.0km/h 58% 0in /  0.0mm CLR
08:10 74.8 °F /  23.8 °C 59.2 °F /  15.1 °C 30in /  1015.6hPa SW 4.7mph /  7.6km/h 6.9mph /  11.1km/h 58% 0in /  0.0mm CLR
08:15 75 °F /  23.9 °C 58.8 °F /  14.9 °C 30in /  1015.6hPa WSW 4.7mph /  7.6km/h 6.9mph /  11.1km/h 57% 0in /  0.0mm CLR
08:20 75.4 °F /  24.1 °C 59.2 °F /  15.1 °C 30in /  1015.7hPa SW 4.7mph /  7.6km/h 6.9mph /  11.1km/h 57% 0in /  0.0mm CLR
08:25 75.6 °F /  24.2 °C 59.4 °F /  15.2 °C 30in /  1015.7hPa WSW 4.7mph /  7.6km/h 5.8mph /  9.3km/h 57% 0in /  0.0mm CLR
08:30 75.7 °F /  24.3 °C 58.8 °F /  14.9 °C 30in /  1015.7hPa South 4.7mph /  7.6km/h 6.9mph /  11.1km/h 56% 0in /  0.0mm CLR
08:35 75.9 °F /  24.4 °C 59.2 °F /  15.1 °C 30in /  1015.6hPa SSW 4.7mph /  7.6km/h 5.2mph /  8.4km/h 56% 0in /  0.0mm CLR
08:40 76.3 °F /  24.6 °C 58.8 °F /  14.9 °C 30in /  1015.6hPa WSW 3.6mph /  5.8km/h 6.9mph /  11.1km/h 55% 0in /  0.0mm CLR
08:45 76.5 °F /  24.7 °C 59.2 °F /  15.1 °C 30in /  1015.6hPa WSW 3.6mph /  5.8km/h 5.8mph /  9.3km/h 55% 0in /  0.0mm CLR
08:50 76.6 °F /  24.8 °C 59.4 °F /  15.2 °C 30in /  1015.7hPa SSW 4.3mph /  6.9km/h 8.1mph /  13.0km/h 55% 0in /  0.0mm CLR
08:55 76.8 °F /  24.9 °C 59.4 °F /  15.2 °C 30in /  1015.7hPa SW 4.3mph /  6.9km/h 6.9mph /  11.1km/h 55% 0in /  0.0mm CLR
09:00 77.2 °F /  25.1 °C 59.2 °F /  15.1 °C 30in /  1015.7hPa SSW 4.7mph /  7.6km/h 5.8mph /  9.3km/h 54% 0in /  0.0mm CLR
09:05 77.4 °F /  25.2 °C 58.8 °F /  14.9 °C 30in /  1015.7hPa SW 4.7mph /  7.6km/h 6.9mph /  11.1km/h 53% 0in /  0.0mm CLR
09:10 77.5 °F /  25.3 °C 59.2 °F /  15.1 °C 30in /  1015.7hPa SW 4.3mph /  6.9km/h 5.8mph /  9.3km/h 53% 0in /  0.0mm CLR
09:15 77.7 °F /  25.4 °C 59.2 °F /  15.1 °C 30in /  1015.7hPa WSW 4.3mph /  6.9km/h 3.5mph /  5.6km/h 53% 0in /  0.0mm CLR
09:20 78.3 °F /  25.7 °C 59.2 °F /  15.1 °C 30in /  1015.7hPa SSW 3.1mph /  5.0km/h 8.1mph /  13.0km/h 52% 0in /  0.0mm CLR
09:25 78.4 °F /  25.8 °C 59.4 °F /  15.2 °C 30in /  1015.7hPa SW 3.1mph /  5.0km/h 4.6mph /  7.4km/h 52% 0in /  0.0mm CLR
09:30 78.6 °F /  25.9 °C 59 °F /  15.0 °C 30in /  1015.7hPa SW 3.6mph /  5.8km/h 5.8mph /  9.3km/h 51% 0in /  0.0mm CLR
09:35 78.8 °F /  26.0 °C 59.2 °F /  15.1 °C 30in /  1015.7hPa South 3.6mph /  5.8km/h 5.8mph /  9.3km/h 51% 0in /  0.0mm CLR
09:40 79.2 °F /  26.2 °C 59.5 °F /  15.3 °C 30in /  1015.7hPa SW 4mph /  6.4km/h 4.6mph /  7.4km/h 51% 0in /  0.0mm CLR
09:45 79.3 °F /  26.3 °C 59.5 °F /  15.3 °C 30in /  1015.7hPa WSW 4mph /  6.4km/h 3.1mph /  5.0km/h 51% 0in /  0.0mm CLR
09:50 79.5 °F /  26.4 °C 59.2 °F /  15.1 °C 30in /  1015.6hPa South 3.6mph /  5.8km/h 4.3mph /  6.9km/h 50% 0in /  0.0mm CLR
09:55 80.1 °F /  26.7 °C 59.7 °F /  15.4 °C 30in /  1015.6hPa South 3.6mph /  5.8km/h 8.1mph /  13.0km/h 50% 0in /  0.0mm CLR
10:00 80.2 °F /  26.8 °C 59.9 °F /  15.5 °C 30in /  1015.6hPa South 3.6mph /  5.8km/h 5.8mph /  9.3km/h 50% 0in /  0.0mm CLR
10:05 80.4 °F /  26.9 °C 59.5 °F /  15.3 °C 30in /  1015.5hPa SW 3.6mph /  5.8km/h 4.6mph /  7.4km/h 49% 0in /  0.0mm CLR
10:10 80.8 °F /  27.1 °C 59.7 °F /  15.4 °C 30in /  1015.5hPa SSW 3.6mph /  5.8km/h 5.8mph /  9.3km/h 49% 0in /  0.0mm CLR
10:15 81.1 °F /  27.3 °C 60.3 °F /  15.7 °C 30in /  1015.5hPa SSW 3.6mph /  5.8km/h 3.5mph /  5.6km/h 49% 0in /  0.0mm CLR
10:20 81.7 °F /  27.6 °C 60.1 °F /  15.6 °C 30in /  1015.5hPa SW 2.4mph /  3.9km/h 4.6mph /  7.4km/h 48% 0in /  0.0mm CLR
10:25 82 °F /  27.8 °C 60.4 °F /  15.8 °C 30in /  1015.5hPa SW 2.4mph /  3.9km/h 4.6mph /  7.4km/h 48% 0in /  0.0mm CLR
10:30 82.6 °F /  28.1 °C 60.3 °F /  15.7 °C 30in /  1015.5hPa SSW 2.9mph /  4.7km/h 5.4mph /  8.7km/h 47% 0in /  0.0mm CLR
10:35 83.3 °F /  28.5 °C 60.4 °F /  15.8 °C 30in /  1015.3hPa SW 2.9mph /  4.7km/h 5.8mph /  9.3km/h 46% 0in /  0.0mm CLR
10:40 83.5 °F /  28.6 °C 60.4 °F /  15.8 °C 30in /  1015.3hPa West 2.9mph /  4.7km/h 3.5mph /  5.6km/h 46% 0in /  0.0mm CLR
10:45 83.8 °F /  28.8 °C 60.3 °F /  15.7 °C 30in /  1015.3hPa South 2.9mph /  4.7km/h 4.6mph /  7.4km/h 45% 0in /  0.0mm CLR
10:50 84 °F /  28.9 °C 60.4 °F /  15.8 °C 30in /  1015.3hPa SSW 2.4mph /  3.9km/h 3.5mph /  5.6km/h 45% 0in /  0.0mm CLR
10:55 84.4 °F /  29.1 °C 60.6 °F /  15.9 °C 30in /  1015.3hPa SSE 2.4mph /  3.9km/h 6.9mph /  11.1km/h 45% 0in /  0.0mm CLR
11:00 84.4 °F /  29.1 °C 60.1 °F /  15.6 °C 30in /  1015.3hPa SW 4mph /  6.4km/h 5.8mph /  9.3km/h 44% 0in /  0.0mm CLR
11:05 84.6 °F /  29.2 °C 60.3 °F /  15.7 °C 30in /  1015.2hPa SE 4mph /  6.4km/h 4.6mph /  7.4km/h 44% 0in /  0.0mm CLR
11:10 84.9 °F /  29.4 °C 59.9 °F /  15.5 °C 30in /  1015.2hPa SW 3.6mph /  5.8km/h 4.6mph /  7.4km/h 43% 0in /  0.0mm CLR
11:15 85.6 °F /  29.8 °C 59.9 °F /  15.5 °C 30in /  1015.2hPa SSW 3.6mph /  5.8km/h 3.5mph /  5.6km/h 42% 0in /  0.0mm CLR
11:20 86.2 °F /  30.1 °C 59.7 °F /  15.4 °C 30in /  1015.1hPa WNW 2.4mph /  3.9km/h 4.6mph /  7.4km/h 41% 0in /  0.0mm CLR
11:25 86.5 °F /  30.3 °C 58.6 °F /  14.8 °C 30in /  1015.1hPa NNE 2.4mph /  3.9km/h 6.9mph /  11.1km/h 39% 0in /  0.0mm CLR
11:30 86.9 °F /  30.5 °C 59 °F /  15.0 °C 30in /  1015.1hPa ENE 3.1mph /  5.0km/h 5.8mph /  9.3km/h 39% 0in /  0.0mm CLR
11:35 87.1 °F /  30.6 °C 58.5 °F /  14.7 °C 30in /  1015.2hPa ENE 3.1mph /  5.0km/h 6.9mph /  11.1km/h 38% 0in /  0.0mm CLR
11:40 87.1 °F /  30.6 °C 59.2 °F /  15.1 °C 30in /  1015.2hPa ENE 4.3mph /  6.9km/h 8.1mph /  13.0km/h 39% 0in /  0.0mm CLR
11:45 87.3 °F /  30.7 °C 58.6 °F /  14.8 °C 30in /  1015.2hPa NE 4.3mph /  6.9km/h 5.8mph /  9.3km/h 38% 0in /  0.0mm CLR
11:50 87.4 °F /  30.8 °C 58.6 °F /  14.8 °C 30in /  1015.0hPa NE 4mph /  6.4km/h 6.9mph /  11.1km/h 38% 0in /  0.0mm CLR
11:55 88.2 °F /  31.2 °C 58.6 °F /  14.8 °C 30in /  1015.0hPa East 4mph /  6.4km/h 3.5mph /  5.6km/h 37% 0in /  0.0mm CLR
12:00 88.7 °F /  31.5 °C 58.3 °F /  14.6 °C 30in /  1015.0hPa NNW 2.9mph /  4.7km/h 5.9mph /  9.5km/h 36% 0in /  0.0mm CLR
12:05 88.7 °F /  31.5 °C 57.6 °F /  14.2 °C 30in /  1015.0hPa NE 2.9mph /  4.7km/h 8.1mph /  13.0km/h 35% 0in /  0.0mm CLR
12:10 88.5 °F /  31.4 °C 57.4 °F /  14.1 °C 30in /  1015.0hPa NE 5.2mph /  8.4km/h 4.7mph /  7.6km/h 35% 0in /  0.0mm CLR
12:15 88.5 °F /  31.4 °C 58.3 °F /  14.6 °C 30in /  1015.0hPa ENE 5.2mph /  8.4km/h 9.2mph /  14.8km/h 36% 0in /  0.0mm CLR
12:20 88.5 °F /  31.4 °C 58.3 °F /  14.6 °C 30in /  1014.9hPa NE 5.2mph /  8.4km/h 6.9mph /  11.1km/h 36% 0in /  0.0mm CLR
12:25 88.9 °F /  31.6 °C 58.5 °F /  14.7 °C 30in /  1014.9hPa ESE 5.2mph /  8.4km/h 5.8mph /  9.3km/h 36% 0in /  0.0mm CLR
12:30 89.4 °F /  31.9 °C 58.3 °F /  14.6 °C 30in /  1014.9hPa NW 3.6mph /  5.8km/h 4.6mph /  7.4km/h 35% 0in /  0.0mm CLR
12:35 89.4 °F /  31.9 °C 56.5 °F /  13.6 °C 30in /  1014.9hPa East 3.6mph /  5.8km/h 4.6mph /  7.4km/h 33% 0in /  0.0mm CLR
12:40 89.6 °F /  32.0 °C 56.7 °F /  13.7 °C 30in /  1014.9hPa NNE 4.7mph /  7.6km/h 11.5mph /  18.5km/h 33% 0in /  0.0mm CLR
12:45 89.8 °F /  32.1 °C 57.7 °F /  14.3 °C 30in /  1014.9hPa North 4.7mph /  7.6km/h 10.4mph /  16.7km/h 34% 0in /  0.0mm CLR
12:50 89.8 °F /  32.1 °C 57.7 °F /  14.3 °C 30in /  1014.7hPa NE 6.2mph /  10.0km/h 8.5mph /  13.7km/h 34% 0in /  0.0mm CLR
12:55 90.1 °F /  32.3 °C 57.2 °F /  14.0 °C 30in /  1014.7hPa ENE 6.2mph /  10.0km/h 11.5mph /  18.5km/h 33% 0in /  0.0mm CLR
13:00 90.3 °F /  32.4 °C 58.1 °F /  14.5 °C 30in /  1014.7hPa NE 5.9mph /  9.5km/h 9.2mph /  14.8km/h 34% 0in /  0.0mm CLR
13:05 90.1 °F /  32.3 °C 57.9 °F /  14.4 °C 30in /  1014.6hPa NNE 5.9mph /  9.5km/h 9.2mph /  14.8km/h 34% 0in /  0.0mm CLR
13:10 90.1 °F /  32.3 °C 57.9 °F /  14.4 °C 30in /  1014.6hPa ENE 6.2mph /  10.0km/h 9.2mph /  14.8km/h 34% 0in /  0.0mm CLR
13:15 90.7 °F /  32.6 °C 58.5 °F /  14.7 °C 30in /  1014.6hPa NE 6.2mph /  10.0km/h 13.8mph /  22.2km/h 34% 0in /  0.0mm CLR
13:20 91 °F /  32.8 °C 58.8 °F /  14.9 °C 30in /  1014.4hPa NE 6.4mph /  10.3km/h 11.5mph /  18.5km/h 34% 0in /  0.0mm CLR
13:25 91.2 °F /  32.9 °C 58.8 °F /  14.9 °C 30in /  1014.4hPa NE 6.4mph /  10.3km/h 5.9mph /  9.5km/h 34% 0in /  0.0mm CLR
13:30 91.6 °F /  33.1 °C 59.2 °F /  15.1 °C 30in /  1014.4hPa NE 5.9mph /  9.5km/h 12.7mph /  20.4km/h 34% 0in /  0.0mm CLR
13:35 91.4 °F /  33.0 °C 59.2 °F /  15.1 °C 30in /  1014.4hPa East 5.9mph /  9.5km/h 5.8mph /  9.3km/h 34% 0in /  0.0mm CLR
13:40 91.6 °F /  33.1 °C 59.2 °F /  15.1 °C 30in /  1014.4hPa ENE 6.4mph /  10.3km/h 10.4mph /  16.7km/h 34% 0in /  0.0mm CLR
13:45 91.8 °F /  33.2 °C 59.4 °F /  15.2 °C 30in /  1014.4hPa NE 6.4mph /  10.3km/h 10.4mph /  16.7km/h 34% 0in /  0.0mm CLR
13:50 91.9 °F /  33.3 °C 58.6 °F /  14.8 °C 30in /  1014.2hPa NE 6.4mph /  10.3km/h 9.2mph /  14.8km/h 33% 0in /  0.0mm CLR
13:55 91.9 °F /  33.3 °C 59.5 °F /  15.3 °C 30in /  1014.2hPa North 6.4mph /  10.3km/h 9.2mph /  14.8km/h 34% 0in /  0.0mm CLR
14:00 92.1 °F /  33.4 °C 57.9 °F /  14.4 °C 30in /  1014.2hPa NE 7.6mph /  12.2km/h 15mph /  24.1km/h 32% 0in /  0.0mm CLR
14:05 92.3 °F /  33.5 °C 57.4 °F /  14.1 °C 29.9in /  1014.1hPa NNE 7.6mph /  12.2km/h 17.3mph /  27.8km/h 31% 0in /  0.0mm CLR
14:10 91.9 °F /  33.3 °C 56.1 °F /  13.4 °C 29.9in /  1014.1hPa NNE 10.2mph /  16.4km/h 17.3mph /  27.8km/h 30% 0in /  0.0mm CLR
14:15 92.1 °F /  33.4 °C 57 °F /  13.9 °C 29.9in /  1014.1hPa ENE 10.2mph /  16.4km/h 13.8mph /  22.2km/h 31% 0in /  0.0mm CLR
14:20 92.8 °F /  33.8 °C 57.7 °F /  14.3 °C 29.9in /  1013.9hPa NNW 8.5mph /  13.7km/h 16.1mph /  25.9km/h 31% 0in /  0.0mm CLR
14:25 93 °F /  33.9 °C 57 °F /  13.9 °C 29.9in /  1013.9hPa ESE 8.5mph /  13.7km/h 12.7mph /  20.4km/h 30% 0in /  0.0mm CLR
14:30 93.2 °F /  34.0 °C 57.2 °F /  14.0 °C 29.9in /  1013.9hPa NNE 8.5mph /  13.7km/h 17.5mph /  28.2km/h 30% 0in /  0.0mm CLR
14:35 92.8 °F /  33.8 °C 57.7 °F /  14.3 °C 29.9in /  1013.9hPa NE 8.5mph /  13.7km/h 12.7mph /  20.4km/h 31% 0in /  0.0mm CLR
14:40 92.8 °F /  33.8 °C 56.8 °F /  13.8 °C 29.9in /  1013.9hPa East 9.2mph /  14.8km/h 15mph /  24.1km/h 30% 0in /  0.0mm CLR
14:45 93 °F /  33.9 °C 57 °F /  13.9 °C 29.9in /  1013.9hPa East 9.2mph /  14.8km/h 15mph /  24.1km/h 30% 0in /  0.0mm CLR
14:50 93 °F /  33.9 °C 57 °F /  13.9 °C 29.9in /  1013.8hPa ENE 9.2mph /  14.8km/h 15mph /  24.1km/h 30% 0in /  0.0mm CLR
14:55 93.2 °F /  34.0 °C 57.2 °F /  14.0 °C 29.9in /  1013.8hPa ENE 9.2mph /  14.8km/h 11.5mph /  18.5km/h 30% 0in /  0.0mm CLR
15:00 92.8 °F /  33.8 °C 55.9 °F /  13.3 °C 29.9in /  1013.8hPa ENE 8.7mph /  14.0km/h 17.3mph /  27.8km/h 29% 0in /  0.0mm CLR
15:05 93.2 °F /  34.0 °C 56.1 °F /  13.4 °C 29.9in /  1013.7hPa East 8.7mph /  14.0km/h 12.7mph /  20.4km/h 29% 0in /  0.0mm CLR
15:10 93.6 °F /  34.2 °C 56.5 °F /  13.6 °C 29.9in /  1013.7hPa NE 6.9mph /  11.1km/h 15mph /  24.1km/h 29% 0in /  0.0mm CLR
15:15 93.6 °F /  34.2 °C 54.7 °F /  12.6 °C 29.9in /  1013.7hPa ENE 6.9mph /  11.1km/h 16.1mph /  25.9km/h 27% 0in /  0.0mm CLR
15:20 93 °F /  33.9 °C 56.1 °F /  13.4 °C 29.9in /  1013.7hPa NE 9.2mph /  14.8km/h 15mph /  24.1km/h 29% 0in /  0.0mm CLR
15:25 93.4 °F /  34.1 °C 56.5 °F /  13.6 °C 29.9in /  1013.7hPa NNE 9.2mph /  14.8km/h 15mph /  24.1km/h 29% 0in /  0.0mm CLR
15:30 93.4 °F /  34.1 °C 56.5 °F /  13.6 °C 29.9in /  1013.7hPa ENE 8.7mph /  14.0km/h 10.4mph /  16.7km/h 29% 0in /  0.0mm CLR
15:35 93.4 °F /  34.1 °C 54.3 °F /  12.4 °C 29.9in /  1013.6hPa NNE 8.7mph /  14.0km/h 15mph /  24.1km/h 27% 0in /  0.0mm CLR
15:40 93.2 °F /  34.0 °C 56.1 °F /  13.4 °C 29.9in /  1013.6hPa NNE 8.7mph /  14.0km/h 15mph /  24.1km/h 29% 0in /  0.0mm CLR
15:45 93.4 °F /  34.1 °C 55.4 °F /  13.0 °C 29.9in /  1013.6hPa NE 8.7mph /  14.0km/h 13.5mph /  21.7km/h 28% 0in /  0.0mm CLR
15:50 93.4 °F /  34.1 °C 55.4 °F /  13.0 °C 29.9in /  1013.5hPa NE 9.2mph /  14.8km/h 13.8mph /  22.2km/h 28% 0in /  0.0mm CLR
15:55 93.2 °F /  34.0 °C 55.2 °F /  12.9 °C 29.9in /  1013.5hPa East 9.2mph /  14.8km/h 12.3mph /  19.8km/h 28% 0in /  0.0mm CLR
16:00 93.7 °F /  34.3 °C 55.8 °F /  13.2 °C 29.9in /  1013.5hPa East 10mph /  16.1km/h 17.3mph /  27.8km/h 28% 0in /  0.0mm CLR
16:05 93.6 °F /  34.2 °C 55.6 °F /  13.1 °C 29.9in /  1013.3hPa NE 10mph /  16.1km/h 17.3mph /  27.8km/h 28% 0in /  0.0mm CLR
16:10 93.6 °F /  34.2 °C 56.5 °F /  13.6 °C 29.9in /  1013.3hPa ENE 10.2mph /  16.4km/h 19.6mph /  31.5km/h 29% 0in /  0.0mm CLR
16:15 93.2 °F /  34.0 °C 56.1 °F /  13.4 °C 29.9in /  1013.3hPa NNE 10.2mph /  16.4km/h 17.3mph /  27.8km/h 29% 0in /  0.0mm CLR
16:20 93.6 °F /  34.2 °C 56.5 °F /  13.6 °C 29.9in /  1013.4hPa ENE 11.2mph /  18.0km/h 10.4mph /  16.7km/h 29% 0in /  0.0mm CLR
16:25 93.6 °F /  34.2 °C 56.5 °F /  13.6 °C 29.9in /  1013.4hPa NE 11.2mph /  18.0km/h 15.9mph /  25.6km/h 29% 0in /  0.0mm CLR
16:30 93.4 °F /  34.1 °C 56.5 °F /  13.6 °C 29.9in /  1013.4hPa NNE 9.2mph /  14.8km/h 13.8mph /  22.2km/h 29% 0in /  0.0mm CLR
16:35 93.4 °F /  34.1 °C 56.5 °F /  13.6 °C 29.9in /  1013.2hPa NE 9.2mph /  14.8km/h 18.4mph /  29.6km/h 29% 0in /  0.0mm CLR
16:40 93 °F /  33.9 °C 57 °F /  13.9 °C 29.9in /  1013.2hPa NE 10.2mph /  16.4km/h 17.3mph /  27.8km/h 30% 0in /  0.0mm CLR
16:45 93 °F /  33.9 °C 57 °F /  13.9 °C 29.9in /  1013.2hPa ENE 10.2mph /  16.4km/h 12.7mph /  20.4km/h 30% 0in /  0.0mm CLR
16:50 92.8 °F /  33.8 °C 56.8 °F /  13.8 °C 29.9in /  1013.2hPa ENE 9.2mph /  14.8km/h 15mph /  24.1km/h 30% 0in /  0.0mm CLR
16:55 92.7 °F /  33.7 °C 57.6 °F /  14.2 °C 29.9in /  1013.2hPa NNE 9.2mph /  14.8km/h 13.8mph /  22.2km/h 31% 0in /  0.0mm CLR
17:00 92.8 °F /  33.8 °C 56.8 °F /  13.8 °C 29.9in /  1013.2hPa NE 8.7mph /  14.0km/h 15.9mph /  25.6km/h 30% 0in /  0.0mm CLR
17:05 92.5 °F /  33.6 °C 57.4 °F /  14.1 °C 29.9in /  1013.2hPa NNE 8.7mph /  14.0km/h 17.3mph /  27.8km/h 31% 0in /  0.0mm CLR
17:10 92.5 °F /  33.6 °C 58.3 °F /  14.6 °C 29.9in /  1013.2hPa NE 10.7mph /  17.2km/h 15.9mph /  25.6km/h 32% 0in /  0.0mm CLR
17:15 92.5 °F /  33.6 °C 57.4 °F /  14.1 °C 29.9in /  1013.2hPa East 10.7mph /  17.2km/h 15mph /  24.1km/h 31% 0in /  0.0mm CLR
17:20 92.7 °F /  33.7 °C 58.5 °F /  14.7 °C 29.9in /  1013.2hPa NE 9.2mph /  14.8km/h 9.2mph /  14.8km/h 32% 0in /  0.0mm CLR
17:25 92.7 °F /  33.7 °C 58.5 °F /  14.7 °C 29.9in /  1013.2hPa East 9.2mph /  14.8km/h 10.4mph /  16.7km/h 32% 0in /  0.0mm CLR
17:30 92.7 °F /  33.7 °C 57.6 °F /  14.2 °C 29.9in /  1013.2hPa ENE 7.4mph /  11.9km/h 12.7mph /  20.4km/h 31% 0in /  0.0mm CLR
17:35 92.7 °F /  33.7 °C 57.6 °F /  14.2 °C 29.9in /  1013.0hPa East 7.4mph /  11.9km/h 15mph /  24.1km/h 31% 0in /  0.0mm CLR
17:40 92.1 °F /  33.4 °C 57.9 °F /  14.4 °C 29.9in /  1013.0hPa ENE 8.7mph /  14.0km/h 13.5mph /  21.7km/h 32% 0in /  0.0mm CLR
17:45 91.9 °F /  33.3 °C 57.9 °F /  14.4 °C 29.9in /  1013.0hPa NE 8.7mph /  14.0km/h 11.2mph /  18.0km/h 32% 0in /  0.0mm CLR
17:50 92.5 °F /  33.6 °C 58.3 °F /  14.6 °C 29.9in /  1012.9hPa North 8.7mph /  14.0km/h 13.8mph /  22.2km/h 32% 0in /  0.0mm CLR
17:55 92.1 °F /  33.4 °C 58.8 °F /  14.9 °C 29.9in /  1012.9hPa ENE 8.7mph /  14.0km/h 11.5mph /  18.5km/h 33% 0in /  0.0mm CLR
18:00 92.1 °F /  33.4 °C 57.9 °F /  14.4 °C 29.9in /  1012.9hPa East 9.7mph /  15.6km/h 16.1mph /  25.9km/h 32% 0in /  0.0mm CLR
18:05 92.3 °F /  33.5 °C 58.3 °F /  14.6 °C 29.9in /  1012.9hPa East 9.7mph /  15.6km/h 10.4mph /  16.7km/h 32% 0in /  0.0mm CLR
18:10 92.3 °F /  33.5 °C 58.3 °F /  14.6 °C 29.9in /  1012.9hPa East 7.6mph /  12.2km/h 16.1mph /  25.9km/h 32% 0in /  0.0mm CLR
18:15 92.1 °F /  33.4 °C 57.9 °F /  14.4 °C 29.9in /  1012.9hPa NE 7.6mph /  12.2km/h 15.2mph /  24.5km/h 32% 0in /  0.0mm CLR
18:20 91.9 °F /  33.3 °C 57.9 °F /  14.4 °C 29.9in /  1012.9hPa NE 8.7mph /  14.0km/h 11.5mph /  18.5km/h 32% 0in /  0.0mm CLR
18:25 91.9 °F /  33.3 °C 57 °F /  13.9 °C 29.9in /  1012.9hPa NE 8.7mph /  14.0km/h 15mph /  24.1km/h 31% 0in /  0.0mm CLR
18:30 91.9 °F /  33.3 °C 57.9 °F /  14.4 °C 29.9in /  1012.9hPa NE 8.1mph /  13.0km/h 16.1mph /  25.9km/h 32% 0in /  0.0mm CLR
18:35 91.9 °F /  33.3 °C 57.9 °F /  14.4 °C 29.9in /  1012.9hPa NE 8.1mph /  13.0km/h 12.7mph /  20.4km/h 32% 0in /  0.0mm CLR
18:40 91.9 °F /  33.3 °C 57.9 °F /  14.4 °C 29.9in /  1012.9hPa NE 8.1mph /  13.0km/h 10.4mph /  16.7km/h 32% 0in /  0.0mm CLR
18:45 92.1 °F /  33.4 °C 57 °F /  13.9 °C 29.9in /  1012.9hPa ENE 8.1mph /  13.0km/h 9.2mph /  14.8km/h 31% 0in /  0.0mm CLR
18:50 91.8 °F /  33.2 °C 57.7 °F /  14.3 °C 29.9in /  1012.8hPa NE 7.6mph /  12.2km/h 8.5mph /  13.7km/h 32% 0in /  0.0mm CLR
18:55 91.6 °F /  33.1 °C 56.7 °F /  13.7 °C 29.9in /  1012.8hPa East 7.6mph /  12.2km/h 13.8mph /  22.2km/h 31% 0in /  0.0mm CLR
19:00 91.4 °F /  33.0 °C 57.4 °F /  14.1 °C 29.9in /  1012.8hPa North 8.7mph /  14.0km/h 10.4mph /  16.7km/h 32% 0in /  0.0mm CLR
19:05 91.4 °F /  33.0 °C 56.5 °F /  13.6 °C 29.9in /  1012.8hPa NE 8.7mph /  14.0km/h 10.7mph /  17.2km/h 31% 0in /  0.0mm CLR
19:10 91.2 °F /  32.9 °C 56.5 °F /  13.6 °C 29.9in /  1012.8hPa ESE 7.6mph /  12.2km/h 10.4mph /  16.7km/h 31% 0in /  0.0mm CLR
19:15 91.4 °F /  33.0 °C 56.5 °F /  13.6 °C 29.9in /  1012.8hPa ENE 7.6mph /  12.2km/h 8.1mph /  13.0km/h 31% 0in /  0.0mm CLR
19:20 91 °F /  32.8 °C 56.1 °F /  13.4 °C 29.9in /  1012.8hPa NE 7.6mph /  12.2km/h 15mph /  24.1km/h 31% 0in /  0.0mm CLR
19:25 91 °F /  32.8 °C 56.1 °F /  13.4 °C 29.9in /  1012.8hPa NE 7.6mph /  12.2km/h 17.3mph /  27.8km/h 31% 0in /  0.0mm CLR
19:30 90.9 °F /  32.7 °C 56.8 °F /  13.8 °C 29.9in /  1012.8hPa ENE 10mph /  16.1km/h 15mph /  24.1km/h 32% 0in /  0.0mm CLR
19:35 90.7 °F /  32.6 °C 57.6 °F /  14.2 °C 29.9in /  1012.7hPa NNE 10mph /  16.1km/h 13.8mph /  22.2km/h 33% 0in /  0.0mm CLR
19:40 90.5 °F /  32.5 °C 57.6 °F /  14.2 °C 29.9in /  1012.7hPa NNE 9.7mph /  15.6km/h 10.4mph /  16.7km/h 33% 0in /  0.0mm CLR
19:45 90.7 °F /  32.6 °C 58.5 °F /  14.7 °C 29.9in /  1012.7hPa ENE 9.7mph /  15.6km/h 8.1mph /  13.0km/h 34% 0in /  0.0mm CLR
19:50 90.3 °F /  32.4 °C 58.1 °F /  14.5 °C 29.9in /  1012.8hPa NE 7.6mph /  12.2km/h 17.3mph /  27.8km/h 34% 0in /  0.0mm CLR
19:55 90 °F /  32.2 °C 57.7 °F /  14.3 °C 29.9in /  1012.8hPa NE 7.6mph /  12.2km/h 11.5mph /  18.5km/h 34% 0in /  0.0mm CLR
20:00 90 °F /  32.2 °C 58.6 °F /  14.8 °C 29.9in /  1012.8hPa NE 8.5mph /  13.7km/h 12.5mph /  20.1km/h 35% 0in /  0.0mm CLR
20:05 89.8 °F /  32.1 °C 59.4 °F /  15.2 °C 29.9in /  1012.8hPa NE 8.5mph /  13.7km/h 12.7mph /  20.4km/h 36% 0in /  0.0mm CLR
20:10 89.4 °F /  31.9 °C 59 °F /  15.0 °C 29.9in /  1012.8hPa NE 8.7mph /  14.0km/h 13.8mph /  22.2km/h 36% 0in /  0.0mm CLR
20:15 89.2 °F /  31.8 °C 59.5 °F /  15.3 °C 29.9in /  1012.8hPa NE 8.7mph /  14.0km/h 12.7mph /  20.4km/h 37% 0in /  0.0mm CLR
20:20 88.9 °F /  31.6 °C 60.1 °F /  15.6 °C 29.9in /  1012.9hPa NE 8.7mph /  14.0km/h 12.7mph /  20.4km/h 38% 0in /  0.0mm CLR
20:25 88.5 °F /  31.4 °C 59.7 °F /  15.4 °C 29.9in /  1012.9hPa NE 8.7mph /  14.0km/h 14mph /  22.5km/h 38% 0in /  0.0mm CLR
20:30 88.2 °F /  31.2 °C 60.1 °F /  15.6 °C 29.9in /  1012.9hPa ENE 9.2mph /  14.8km/h 17.3mph /  27.8km/h 39% 0in /  0.0mm CLR
20:35 87.6 °F /  30.9 °C 60.3 °F /  15.7 °C 29.9in /  1013.0hPa NE 9.2mph /  14.8km/h 12.5mph /  20.1km/h 40% 0in /  0.0mm CLR
20:40 87.3 °F /  30.7 °C 60.1 °F /  15.6 °C 29.9in /  1013.0hPa ENE 9.7mph /  15.6km/h 10.4mph /  16.7km/h 40% 0in /  0.0mm CLR
20:45 87.1 °F /  30.6 °C 60.4 °F /  15.8 °C 29.9in /  1013.0hPa NE 9.7mph /  15.6km/h 9.2mph /  14.8km/h 41% 0in /  0.0mm CLR
20:50 86.7 °F /  30.4 °C 60.3 °F /  15.7 °C 29.9in /  1013.1hPa NE 7.6mph /  12.2km/h 10.4mph /  16.7km/h 41% 0in /  0.0mm CLR
20:55 86.5 °F /  30.3 °C 60.1 °F /  15.6 °C 29.9in /  1013.1hPa ENE 7.6mph /  12.2km/h 9.2mph /  14.8km/h 41% 0in /  0.0mm CLR
21:00 86.2 °F /  30.1 °C 59.7 °F /  15.4 °C 29.9in /  1013.1hPa NE 7.6mph /  12.2km/h 9.2mph /  14.8km/h 41% 0in /  0.0mm CLR
21:05 85.8 °F /  29.9 °C 60.1 °F /  15.6 °C 29.9in /  1013.2hPa NE 7.6mph /  12.2km/h 13mph /  20.9km/h 42% 0in /  0.0mm CLR
21:10 85.6 °F /  29.8 °C 59.2 °F /  15.1 °C 29.9in /  1013.2hPa NE 8.1mph /  13.0km/h 11.5mph /  18.5km/h 41% 0in /  0.0mm CLR
21:15 85.5 °F /  29.7 °C 59.2 °F /  15.1 °C 29.9in /  1013.2hPa ENE 8.1mph /  13.0km/h 11.5mph /  18.5km/h 41% 0in /  0.0mm CLR
21:20 85.3 °F /  29.6 °C 59.5 °F /  15.3 °C 29.9in /  1013.3hPa ENE 7.4mph /  11.9km/h 9.2mph /  14.8km/h 42% 0in /  0.0mm CLR
21:25 84.9 °F /  29.4 °C 59.4 °F /  15.2 °C 29.9in /  1013.3hPa ENE 7.4mph /  11.9km/h 8.1mph /  13.0km/h 42% 0in /  0.0mm CLR
21:30 84.7 °F /  29.3 °C 59.7 °F /  15.4 °C 29.9in /  1013.3hPa NE 6.4mph /  10.3km/h 9.2mph /  14.8km/h 43% 0in /  0.0mm CLR
21:35 84.6 °F /  29.2 °C 59.5 °F /  15.3 °C 29.9in /  1013.4hPa NNE 6.4mph /  10.3km/h 9.2mph /  14.8km/h 43% 0in /  0.0mm CLR
21:40 84.4 °F /  29.1 °C 60.1 °F /  15.6 °C 29.9in /  1013.4hPa NE 6.9mph /  11.1km/h 9.2mph /  14.8km/h 44% 0in /  0.0mm CLR
21:45 84 °F /  28.9 °C 59.7 °F /  15.4 °C 29.9in /  1013.4hPa ENE 6.9mph /  11.1km/h 9.2mph /  14.8km/h 44% 0in /  0.0mm CLR
21:50 83.8 °F /  28.8 °C 60.3 °F /  15.7 °C 29.9in /  1013.6hPa NNE 6.4mph /  10.3km/h 9.2mph /  14.8km/h 45% 0in /  0.0mm CLR
21:55 83.7 °F /  28.7 °C 60.1 °F /  15.6 °C 29.9in /  1013.6hPa NE 6.4mph /  10.3km/h 10.4mph /  16.7km/h 45% 0in /  0.0mm CLR
22:00 83.5 °F /  28.6 °C 60.4 °F /  15.8 °C 29.9in /  1013.6hPa NE 6.2mph /  10.0km/h 8.1mph /  13.0km/h 46% 0in /  0.0mm CLR
22:05 83.1 °F /  28.4 °C 60.3 °F /  15.7 °C 29.9in /  1013.7hPa NNE 6.2mph /  10.0km/h 8.1mph /  13.0km/h 46% 0in /  0.0mm CLR
22:10 82.9 °F /  28.3 °C 60.6 °F /  15.9 °C 29.9in /  1013.7hPa NE 5.4mph /  8.7km/h 7.4mph /  11.9km/h 47% 0in /  0.0mm CLR
22:15 82.6 °F /  28.1 °C 60.3 °F /  15.7 °C 29.9in /  1013.7hPa NE 5.4mph /  8.7km/h 6.9mph /  11.1km/h 47% 0in /  0.0mm CLR
22:20 82.2 °F /  27.9 °C 60.6 °F /  15.9 °C 29.9in /  1013.9hPa NNE 6.2mph /  10.0km/h 9.2mph /  14.8km/h 48% 0in /  0.0mm CLR
22:25 82 °F /  27.8 °C 60.4 °F /  15.8 °C 29.9in /  1013.9hPa NE 6.2mph /  10.0km/h 6.9mph /  11.1km/h 48% 0in /  0.0mm CLR
22:30 82 °F /  27.8 °C 61 °F /  16.1 °C 29.9in /  1013.9hPa NE 5.9mph /  9.5km/h 8.1mph /  13.0km/h 49% 0in /  0.0mm CLR
22:35 81.9 °F /  27.7 °C 60.8 °F /  16.0 °C 29.9in /  1014.1hPa NNE 5.9mph /  9.5km/h 5.8mph /  9.3km/h 49% 0in /  0.0mm CLR
22:40 81.9 °F /  27.7 °C 60.8 °F /  16.0 °C 29.9in /  1014.1hPa East 5.4mph /  8.7km/h 6.9mph /  11.1km/h 49% 0in /  0.0mm CLR
22:45 81.9 °F /  27.7 °C 60.8 °F /  16.0 °C 29.9in /  1014.1hPa ENE 5.4mph /  8.7km/h 6.9mph /  11.1km/h 49% 0in /  0.0mm CLR
22:50 81.7 °F /  27.6 °C 60.6 °F /  15.9 °C 30in /  1014.2hPa NE 5.2mph /  8.4km/h 5.8mph /  9.3km/h 49% 0in /  0.0mm CLR
22:55 81.7 °F /  27.6 °C 60.6 °F /  15.9 °C 30in /  1014.2hPa NE 5.2mph /  8.4km/h 5.9mph /  9.5km/h 49% 0in /  0.0mm CLR
23:00 81.7 °F /  27.6 °C 61.2 °F /  16.2 °C 30in /  1014.2hPa NNE 4.7mph /  7.6km/h 7.4mph /  11.9km/h 50% 0in /  0.0mm CLR
23:05 81.5 °F /  27.5 °C 61.2 °F /  16.2 °C 30in /  1014.2hPa NE 4.7mph /  7.6km/h 6.9mph /  11.1km/h 50% 0in /  0.0mm CLR
23:10 81.5 °F /  27.5 °C 61.2 °F /  16.2 °C 30in /  1014.2hPa ENE 4.7mph /  7.6km/h 5.8mph /  9.3km/h 50% 0in /  0.0mm CLR
23:15 81.5 °F /  27.5 °C 61.2 °F /  16.2 °C 30in /  1014.2hPa NE 4.7mph /  7.6km/h 5.8mph /  9.3km/h 50% 0in /  0.0mm CLR
23:20 81.5 °F /  27.5 °C 61.2 °F /  16.2 °C 30in /  1014.4hPa NNE 3.1mph /  5.0km/h 3.6mph /  5.8km/h 50% 0in /  0.0mm CLR
23:25 81.3 °F /  27.4 °C 61 °F /  16.1 °C 30in /  1014.4hPa NNE 3.1mph /  5.0km/h 3.5mph /  5.6km/h 50% 0in /  0.0mm CLR
23:30 81 °F /  27.2 °C 61.2 °F /  16.2 °C 30in /  1014.4hPa NNE 2mph /  3.2km/h 4.6mph /  7.4km/h 51% 0in /  0.0mm CLR
23:35 80.8 °F /  27.1 °C 61 °F /  16.1 °C 30in /  1014.4hPa NE 2mph /  3.2km/h 1.2mph /  1.9km/h 51% 0in /  0.0mm CLR
23:40 80.6 °F /  27.0 °C 60.8 °F /  16.0 °C 30in /  1014.4hPa NE 1.8mph /  2.9km/h 2.3mph /  3.7km/h 51% 0in /  0.0mm CLR
23:45 80.4 °F /  26.9 °C 61.2 °F /  16.2 °C 30in /  1014.4hPa NE 1.8mph /  2.9km/h   52% 0in /  0.0mm CLR
23:50 80.2 °F /  26.8 °C 61 °F /  16.1 °C 30in /  1014.4hPa NE 1.4mph /  2.3km/h 2.3mph /  3.7km/h 52% 0in /  0.0mm CLR
23:55 80.1 °F /  26.7 °C 61.3 °F /  16.3 °C 30in /  1014.4hPa NE 1.4mph /  2.3km/h 2.3mph /  3.7km/h 53% 0in /  0.0mm CLR
Murcia-Puente Tocinos, España
Compliments of Weather Underground - 2.75 mb

La estación de MeteoMurcia.com, publica sus datos en los siguientes proyectos:

Weather Underground PWS IMURCIAP2 Meteoclimatic www.awekas.at

W3Counter
Web Analytics